WZZ8208 LHBP-LATI
Flight info
| Callsign | WZZ8208 |
|---|---|
| Flight time | 1h 2m |
| Altitude | 35000 |
| Route | FAHAZ DCT KEROP DCT TORTO/N0442F360 DCT YUYUH/N0440F350 DCT AKIKA DCT INLOT |
| Aircraft | A321/M-SDE1E2E3FGIJ1J4RWXY/LB1 |
Departure
| Time | 2026-05-03 20:29 |
|---|---|
| Airport | Budapest Liszt Ferenc International Airport (LHBP) |
Arrival
| Time | 2026-05-03 21:31 |
|---|---|
| Airport | Tirana International Airport Mother Teresa (LATI) |
| Time | Latitude | Longitude | Altitude | Speed | Heading |
|---|---|---|---|---|---|
| 2026-05-03 20:15 | 47.43513 | 19.25976 | 457 ft | 0 kts | 312° |
| 2026-05-03 20:22 | 47.43519 | 19.25966 | 456 ft | 4 kts | 312° |
| 2026-05-03 20:22 | 47.43544 | 19.25936 | 457 ft | 5 kts | 339° |
| 2026-05-03 20:23 | 47.43577 | 19.25945 | 457 ft | 5 kts | 33° |
| 2026-05-03 20:23 | 47.43608 | 19.25986 | 457 ft | 7 kts | 45° |
| 2026-05-03 20:23 | 47.43647 | 19.26032 | 455 ft | 8 kts | 28° |
| 2026-05-03 20:23 | 47.43698 | 19.26027 | 457 ft | 8 kts | 326° |
| 2026-05-03 20:24 | 47.43743 | 19.25969 | 457 ft | 9 kts | 334° |
| 2026-05-03 20:24 | 47.43798 | 19.25999 | 457 ft | 9 kts | 39° |
| 2026-05-03 20:24 | 47.43849 | 19.26066 | 457 ft | 10 kts | 43° |
| 2026-05-03 20:24 | 47.43905 | 19.26138 | 458 ft | 11 kts | 36° |
| 2026-05-03 20:25 | 47.43974 | 19.26118 | 458 ft | 11 kts | 319° |
| 2026-05-03 20:25 | 47.44028 | 19.26029 | 458 ft | 12 kts | 312° |
| 2026-05-03 20:25 | 47.44087 | 19.25932 | 457 ft | 13 kts | 312° |
| 2026-05-03 20:25 | 47.44153 | 19.25830 | 458 ft | 14 kts | 313° |
| 2026-05-03 20:26 | 47.44221 | 19.25720 | 457 ft | 15 kts | 311° |
| 2026-05-03 20:26 | 47.44296 | 19.25605 | 458 ft | 16 kts | 317° |
| 2026-05-03 20:26 | 47.44399 | 19.25558 | 459 ft | 15 kts | 8° |
| 2026-05-03 20:26 | 47.44479 | 19.25626 | 465 ft | 11 kts | 48° |
| 2026-05-03 20:27 | 47.44497 | 19.25675 | 471 ft | 0 kts | 67° |
| 2026-05-03 20:27 | 47.44499 | 19.25683 | 473 ft | 3 kts | 69° |
| 2026-05-03 20:27 | 47.44506 | 19.25773 | 476 ft | 16 kts | 97° |
| 2026-05-03 20:27 | 47.44441 | 19.25920 | 470 ft | 12 kts | 133° |
| 2026-05-03 20:28 | 47.44408 | 19.25974 | 475 ft | 0 kts | 132° |
| 2026-05-03 20:28 | 47.44376 | 19.26026 | 474 ft | 32 kts | 132° |
| 2026-05-03 20:28 | 47.44053 | 19.26548 | 470 ft | 103 kts | 132° |
| 2026-05-03 20:29 | 47.43428 | 19.27554 | 469 ft | 160 kts | 133° |
| 2026-05-03 20:29 | 47.42593 | 19.28865 | 761 ft | 182 kts | 133° |
| 2026-05-03 20:29 | 47.41825 | 19.30384 | 1448 ft | 185 kts | 122° |
| 2026-05-03 20:29 | 47.41175 | 19.32061 | 2067 ft | 196 kts | 121° |
| 2026-05-03 20:30 | 47.40476 | 19.33926 | 2417 ft | 219 kts | 121° |
| 2026-05-03 20:30 | 47.39710 | 19.35978 | 2957 ft | 233 kts | 121° |
| 2026-05-03 20:30 | 47.38917 | 19.38101 | 3725 ft | 239 kts | 121° |
| 2026-05-03 20:30 | 47.37912 | 19.40062 | 4408 ft | 245 kts | 145° |
| 2026-05-03 20:31 | 47.36295 | 19.40892 | 4934 ft | 257 kts | 181° |
| 2026-05-03 20:31 | 47.34581 | 19.40112 | 5477 ft | 266 kts | 216° |
| 2026-05-03 20:31 | 47.33381 | 19.38017 | 6111 ft | 273 kts | 240° |
| 2026-05-03 20:31 | 47.32561 | 19.35458 | 6778 ft | 279 kts | 247° |
| 2026-05-03 20:32 | 47.31816 | 19.32789 | 7454 ft | 283 kts | 247° |
| 2026-05-03 20:32 | 47.31066 | 19.30091 | 8140 ft | 287 kts | 248° |
| 2026-05-03 20:32 | 47.30277 | 19.27364 | 8822 ft | 291 kts | 244° |
| 2026-05-03 20:32 | 47.29294 | 19.24744 | 9514 ft | 295 kts | 238° |
| 2026-05-03 20:33 | 47.28179 | 19.22181 | 10176 ft | 300 kts | 236° |
| 2026-05-03 20:33 | 47.26975 | 19.19541 | 10377 ft | 322 kts | 236° |
| 2026-05-03 20:33 | 47.25677 | 19.16712 | 10515 ft | 344 kts | 236° |
| 2026-05-03 20:33 | 47.24332 | 19.13736 | 10927 ft | 354 kts | 237° |
| 2026-05-03 20:34 | 47.22995 | 19.10723 | 11518 ft | 358 kts | 237° |
| 2026-05-03 20:34 | 47.21581 | 19.07684 | 12122 ft | 362 kts | 230° |
| 2026-05-03 20:34 | 47.19754 | 19.05118 | 12718 ft | 365 kts | 215° |
| 2026-05-03 20:34 | 47.17536 | 19.03289 | 13316 ft | 367 kts | 200° |
| 2026-05-03 20:35 | 47.15071 | 19.02338 | 13929 ft | 368 kts | 185° |
| 2026-05-03 20:35 | 47.12509 | 19.02313 | 14470 ft | 369 kts | 173° |
| 2026-05-03 20:35 | 47.09937 | 19.02609 | 15037 ft | 373 kts | 173° |
| 2026-05-03 20:35 | 47.07337 | 19.02896 | 15603 ft | 376 kts | 173° |
| 2026-05-03 20:36 | 47.04712 | 19.03178 | 16162 ft | 380 kts | 173° |
| 2026-05-03 20:36 | 47.02067 | 19.03461 | 16726 ft | 384 kts | 173° |
| 2026-05-03 20:36 | 46.99391 | 19.03745 | 17282 ft | 387 kts | 173° |
| 2026-05-03 20:36 | 46.96692 | 19.04031 | 17843 ft | 391 kts | 173° |
| 2026-05-03 20:37 | 46.93970 | 19.04319 | 18387 ft | 394 kts | 173° |
| 2026-05-03 20:37 | 46.91236 | 19.04720 | 18861 ft | 396 kts | 167° |
| 2026-05-03 20:37 | 46.88578 | 19.05760 | 19339 ft | 396 kts | 156° |
| 2026-05-03 20:37 | 46.86091 | 19.07467 | 19819 ft | 395 kts | 146° |
| 2026-05-03 20:38 | 46.83764 | 19.09622 | 20320 ft | 398 kts | 144° |
| 2026-05-03 20:38 | 46.81421 | 19.11815 | 20803 ft | 401 kts | 144° |
| 2026-05-03 20:38 | 46.79062 | 19.14016 | 21287 ft | 405 kts | 144° |
| 2026-05-03 20:38 | 46.76673 | 19.16240 | 21759 ft | 408 kts | 144° |
| 2026-05-03 20:39 | 46.74271 | 19.18468 | 22237 ft | 412 kts | 145° |
| 2026-05-03 20:39 | 46.71844 | 19.20712 | 22697 ft | 415 kts | 145° |
| 2026-05-03 20:39 | 46.69428 | 19.22945 | 23139 ft | 418 kts | 145° |
| 2026-05-03 20:39 | 46.66967 | 19.25223 | 23582 ft | 421 kts | 145° |
| 2026-05-03 20:40 | 46.64484 | 19.27520 | 23962 ft | 424 kts | 145° |
| 2026-05-03 20:40 | 46.61988 | 19.29831 | 24335 ft | 427 kts | 145° |
| 2026-05-03 20:40 | 46.59480 | 19.32149 | 24697 ft | 429 kts | 145° |
| 2026-05-03 20:40 | 46.56952 | 19.34482 | 25074 ft | 432 kts | 145° |
| 2026-05-03 20:41 | 46.54408 | 19.36823 | 25421 ft | 434 kts | 145° |
| 2026-05-03 20:41 | 46.51849 | 19.39174 | 25781 ft | 437 kts | 145° |
| 2026-05-03 20:41 | 46.49275 | 19.41537 | 26133 ft | 439 kts | 145° |
| 2026-05-03 20:41 | 46.46681 | 19.43917 | 26481 ft | 442 kts | 145° |
| 2026-05-03 20:42 | 46.44077 | 19.46302 | 26828 ft | 444 kts | 145° |
| 2026-05-03 20:42 | 46.41459 | 19.48699 | 27168 ft | 446 kts | 145° |
| 2026-05-03 20:42 | 46.38831 | 19.51110 | 27504 ft | 449 kts | 145° |
| 2026-05-03 20:42 | 46.36199 | 19.53524 | 27839 ft | 451 kts | 145° |
| 2026-05-03 20:43 | 46.33539 | 19.55955 | 28172 ft | 454 kts | 145° |
| 2026-05-03 20:43 | 46.30863 | 19.58391 | 28522 ft | 456 kts | 144° |
| 2026-05-03 20:43 | 46.28165 | 19.60843 | 28807 ft | 459 kts | 144° |
| 2026-05-03 20:43 | 46.25457 | 19.63301 | 29105 ft | 461 kts | 144° |
| 2026-05-03 20:44 | 46.22717 | 19.65750 | 29405 ft | 465 kts | 148° |
| 2026-05-03 20:44 | 46.19780 | 19.67757 | 29705 ft | 471 kts | 157° |
| 2026-05-03 20:44 | 46.16622 | 19.69106 | 29982 ft | 476 kts | 166° |
| 2026-05-03 20:44 | 46.13323 | 19.69729 | 30259 ft | 480 kts | 176° |
| 2026-05-03 20:45 | 46.09970 | 19.69786 | 30519 ft | 483 kts | 178° |
| 2026-05-03 20:45 | 46.06600 | 19.69820 | 30785 ft | 485 kts | 178° |
| 2026-05-03 20:45 | 46.03232 | 19.69869 | 31126 ft | 485 kts | 178° |
| 2026-05-03 20:45 | 45.99858 | 19.69926 | 31474 ft | 485 kts | 178° |
| 2026-05-03 20:46 | 45.96483 | 19.69985 | 31818 ft | 485 kts | 178° |
| 2026-05-03 20:46 | 45.93157 | 19.70041 | 32154 ft | 484 kts | 178° |
| 2026-05-03 20:46 | 45.89787 | 19.70092 | 32495 ft | 484 kts | 178° |
| 2026-05-03 20:46 | 45.86417 | 19.70136 | 32835 ft | 484 kts | 178° |
| 2026-05-03 20:47 | 45.83045 | 19.70177 | 33131 ft | 485 kts | 178° |
| 2026-05-03 20:47 | 45.79675 | 19.70220 | 33442 ft | 485 kts | 178° |
| 2026-05-03 20:47 | 45.76301 | 19.70268 | 33765 ft | 485 kts | 178° |
| 2026-05-03 20:47 | 45.72925 | 19.70319 | 34085 ft | 485 kts | 178° |
| 2026-05-03 20:48 | 45.69547 | 19.70370 | 34369 ft | 485 kts | 178° |
| 2026-05-03 20:48 | 45.66175 | 19.70419 | 34638 ft | 485 kts | 178° |
| 2026-05-03 20:48 | 45.62798 | 19.70466 | 34885 ft | 485 kts | 178° |
| 2026-05-03 20:48 | 45.59419 | 19.70514 | 35102 ft | 486 kts | 178° |
| 2026-05-03 20:49 | 45.56044 | 19.70561 | 35164 ft | 484 kts | 178° |
| 2026-05-03 20:49 | 45.49317 | 19.70648 | 35171 ft | 482 kts | 178° |
| 2026-05-03 20:50 | 45.42609 | 19.70733 | 35171 ft | 483 kts | 179° |
| 2026-05-03 20:50 | 45.35887 | 19.70825 | 35174 ft | 483 kts | 179° |
| 2026-05-03 20:51 | 45.29161 | 19.70930 | 35176 ft | 483 kts | 178° |
| 2026-05-03 20:51 | 45.22424 | 19.71024 | 35174 ft | 484 kts | 178° |
| 2026-05-03 20:52 | 45.15735 | 19.71118 | 35176 ft | 485 kts | 178° |
| 2026-05-03 20:52 | 45.08942 | 19.71212 | 35183 ft | 485 kts | 178° |
| 2026-05-03 20:53 | 45.02243 | 19.71308 | 35188 ft | 485 kts | 178° |
| 2026-05-03 20:53 | 44.95486 | 19.71402 | 35193 ft | 485 kts | 178° |
| 2026-05-03 20:54 | 44.88730 | 19.71490 | 35195 ft | 486 kts | 178° |
| 2026-05-03 20:54 | 44.78594 | 19.71626 | 35186 ft | 486 kts | 179° |
| 2026-05-03 20:55 | 44.71837 | 19.71725 | 35204 ft | 486 kts | 178° |
| 2026-05-03 20:55 | 44.65075 | 19.71813 | 35202 ft | 486 kts | 178° |
| 2026-05-03 20:56 | 44.58306 | 19.71907 | 35186 ft | 486 kts | 178° |
| 2026-05-03 20:56 | 44.51550 | 19.71994 | 35186 ft | 486 kts | 179° |
| 2026-05-03 20:57 | 44.44834 | 19.72083 | 35187 ft | 486 kts | 178° |
| 2026-05-03 20:57 | 44.38077 | 19.72190 | 35181 ft | 486 kts | 179° |
| 2026-05-03 20:58 | 44.31318 | 19.72290 | 35188 ft | 486 kts | 179° |
| 2026-05-03 20:58 | 44.24563 | 19.72377 | 35192 ft | 486 kts | 179° |
| 2026-05-03 20:59 | 44.17806 | 19.72456 | 35199 ft | 486 kts | 179° |
| 2026-05-03 20:59 | 44.11031 | 19.72551 | 35189 ft | 487 kts | 179° |
| 2026-05-03 21:00 | 44.06498 | 19.72618 | 35188 ft | 487 kts | 179° |
| 2026-05-03 21:00 | 43.97471 | 19.72734 | 35183 ft | 488 kts | 179° |
| 2026-05-03 21:01 | 43.90681 | 19.72819 | 35191 ft | 488 kts | 179° |
| 2026-05-03 21:01 | 43.85035 | 19.72889 | 35196 ft | 488 kts | 179° |
| 2026-05-03 21:02 | 43.77133 | 19.72997 | 35199 ft | 489 kts | 179° |
| 2026-05-03 21:02 | 43.70333 | 19.73096 | 35201 ft | 489 kts | 179° |
| 2026-05-03 21:03 | 43.63557 | 19.72380 | 35217 ft | 489 kts | 189° |
| 2026-05-03 21:03 | 43.57972 | 19.71137 | 35210 ft | 490 kts | 189° |
| 2026-05-03 21:04 | 43.51239 | 19.69681 | 35209 ft | 490 kts | 189° |
| 2026-05-03 21:04 | 43.44492 | 19.68237 | 35204 ft | 490 kts | 189° |
| 2026-05-03 21:05 | 43.37750 | 19.66786 | 35201 ft | 490 kts | 189° |
| 2026-05-03 21:05 | 43.31006 | 19.65341 | 35203 ft | 491 kts | 189° |
| 2026-05-03 21:06 | 43.24254 | 19.63942 | 35204 ft | 491 kts | 186° |
| 2026-05-03 21:06 | 43.17434 | 19.63522 | 35203 ft | 491 kts | 182° |
| 2026-05-03 21:07 | 43.10603 | 19.63185 | 35197 ft | 491 kts | 182° |
| 2026-05-03 21:07 | 43.03767 | 19.62851 | 35203 ft | 492 kts | 182° |
| 2026-05-03 21:08 | 42.96928 | 19.62514 | 35177 ft | 492 kts | 182° |
| 2026-05-03 21:08 | 42.93507 | 19.62343 | 34904 ft | 491 kts | 182° |
| 2026-05-03 21:08 | 42.90133 | 19.62178 | 34373 ft | 492 kts | 182° |
| 2026-05-03 21:09 | 42.86712 | 19.62009 | 33775 ft | 493 kts | 182° |
| 2026-05-03 21:09 | 42.83292 | 19.61840 | 33215 ft | 490 kts | 182° |
| 2026-05-03 21:09 | 42.79899 | 19.61675 | 32665 ft | 487 kts | 182° |
| 2026-05-03 21:09 | 42.76518 | 19.61512 | 32120 ft | 485 kts | 182° |
| 2026-05-03 21:10 | 42.73149 | 19.61351 | 31570 ft | 483 kts | 182° |
| 2026-05-03 21:10 | 42.69800 | 19.61189 | 31030 ft | 482 kts | 182° |
| 2026-05-03 21:10 | 42.66455 | 19.61025 | 30471 ft | 480 kts | 182° |
| 2026-05-03 21:10 | 42.63116 | 19.60861 | 29885 ft | 479 kts | 181° |
| 2026-05-03 21:11 | 42.59804 | 19.60702 | 29355 ft | 474 kts | 181° |
| 2026-05-03 21:11 | 42.56520 | 19.60544 | 28859 ft | 469 kts | 181° |
| 2026-05-03 21:11 | 42.53283 | 19.60289 | 28386 ft | 464 kts | 187° |
| 2026-05-03 21:11 | 42.50132 | 19.59504 | 27938 ft | 458 kts | 192° |
| 2026-05-03 21:12 | 42.47038 | 19.58648 | 27650 ft | 449 kts | 192° |
| 2026-05-03 21:12 | 42.43991 | 19.57811 | 27148 ft | 447 kts | 192° |
| 2026-05-03 21:12 | 42.40933 | 19.56974 | 26461 ft | 450 kts | 192° |
| 2026-05-03 21:12 | 42.37855 | 19.56133 | 25813 ft | 452 kts | 191° |
| 2026-05-03 21:13 | 42.34769 | 19.55288 | 25172 ft | 453 kts | 191° |
| 2026-05-03 21:13 | 42.31674 | 19.54442 | 24552 ft | 454 kts | 191° |
| 2026-05-03 21:13 | 42.28576 | 19.53597 | 23942 ft | 455 kts | 191° |
| 2026-05-03 21:13 | 42.25513 | 19.52762 | 23269 ft | 455 kts | 191° |
| 2026-05-03 21:14 | 42.22414 | 19.51920 | 22566 ft | 454 kts | 191° |
| 2026-05-03 21:14 | 42.19319 | 19.51080 | 21865 ft | 454 kts | 191° |
| 2026-05-03 21:14 | 42.16228 | 19.50241 | 21196 ft | 453 kts | 191° |
| 2026-05-03 21:14 | 42.13144 | 19.49405 | 20535 ft | 452 kts | 191° |
| 2026-05-03 21:15 | 42.10068 | 19.48577 | 19894 ft | 451 kts | 191° |
| 2026-05-03 21:15 | 42.06993 | 19.47752 | 19263 ft | 450 kts | 191° |
| 2026-05-03 21:15 | 42.03926 | 19.46929 | 18645 ft | 449 kts | 191° |
| 2026-05-03 21:15 | 42.00858 | 19.46103 | 17981 ft | 448 kts | 190° |
| 2026-05-03 21:16 | 41.97778 | 19.45658 | 17260 ft | 444 kts | 178° |
| 2026-05-03 21:16 | 41.94718 | 19.46061 | 16620 ft | 440 kts | 168° |
| 2026-05-03 21:16 | 41.91711 | 19.46782 | 15946 ft | 439 kts | 167° |
| 2026-05-03 21:16 | 41.88703 | 19.47506 | 15301 ft | 439 kts | 168° |
| 2026-05-03 21:17 | 41.85704 | 19.48230 | 14665 ft | 437 kts | 168° |
| 2026-05-03 21:17 | 41.83728 | 19.48706 | 14249 ft | 436 kts | 168° |
| 2026-05-03 21:17 | 41.79747 | 19.49655 | 13370 ft | 433 kts | 168° |
| 2026-05-03 21:17 | 41.76789 | 19.50354 | 12683 ft | 430 kts | 168° |
| 2026-05-03 21:18 | 41.73860 | 19.51041 | 12025 ft | 426 kts | 169° |
| 2026-05-03 21:18 | 41.70952 | 19.51721 | 11364 ft | 422 kts | 169° |
| 2026-05-03 21:18 | 41.68068 | 19.52400 | 10723 ft | 418 kts | 169° |
| 2026-05-03 21:18 | 41.65255 | 19.53067 | 10102 ft | 414 kts | 169° |
| 2026-05-03 21:19 | 41.62428 | 19.53701 | 9423 ft | 410 kts | 171° |
| 2026-05-03 21:19 | 41.59614 | 19.54184 | 8737 ft | 405 kts | 173° |
| 2026-05-03 21:19 | 41.56840 | 19.54556 | 8061 ft | 391 kts | 174° |
| 2026-05-03 21:19 | 41.54225 | 19.54861 | 7413 ft | 364 kts | 175° |
| 2026-05-03 21:20 | 41.51786 | 19.55137 | 6904 ft | 339 kts | 176° |
| 2026-05-03 21:20 | 41.49552 | 19.55403 | 6774 ft | 307 kts | 175° |
| 2026-05-03 21:20 | 41.47488 | 19.55664 | 6651 ft | 294 kts | 175° |
| 2026-05-03 21:20 | 41.45464 | 19.55932 | 6527 ft | 292 kts | 175° |
| 2026-05-03 21:21 | 41.43446 | 19.56204 | 6409 ft | 292 kts | 175° |
| 2026-05-03 21:21 | 41.41434 | 19.56475 | 6282 ft | 290 kts | 175° |
| 2026-05-03 21:21 | 41.39433 | 19.56746 | 6144 ft | 288 kts | 175° |
| 2026-05-03 21:21 | 41.37444 | 19.57017 | 6026 ft | 287 kts | 175° |
| 2026-05-03 21:22 | 41.35464 | 19.57287 | 5862 ft | 286 kts | 175° |
| 2026-05-03 21:22 | 41.33490 | 19.57557 | 5678 ft | 284 kts | 175° |
| 2026-05-03 21:22 | 41.31532 | 19.57822 | 5499 ft | 283 kts | 175° |
| 2026-05-03 21:22 | 41.29572 | 19.58085 | 5323 ft | 283 kts | 175° |
| 2026-05-03 21:23 | 41.27617 | 19.58347 | 5149 ft | 282 kts | 175° |
| 2026-05-03 21:23 | 41.25668 | 19.58609 | 4975 ft | 281 kts | 175° |
| 2026-05-03 21:23 | 41.23729 | 19.58872 | 4803 ft | 279 kts | 174° |
| 2026-05-03 21:23 | 41.21801 | 19.59134 | 4614 ft | 278 kts | 174° |
| 2026-05-03 21:24 | 41.19972 | 19.59777 | 4433 ft | 276 kts | 151° |
| 2026-05-03 21:24 | 41.18519 | 19.61375 | 4255 ft | 272 kts | 125° |
| 2026-05-03 21:24 | 41.17732 | 19.63614 | 4098 ft | 267 kts | 99° |
| 2026-05-03 21:24 | 41.17697 | 19.66079 | 4007 ft | 263 kts | 82° |
| 2026-05-03 21:25 | 41.17880 | 19.68418 | 4003 ft | 251 kts | 82° |
| 2026-05-03 21:25 | 41.18049 | 19.70648 | 4021 ft | 233 kts | 81° |
| 2026-05-03 21:25 | 41.18531 | 19.72607 | 4010 ft | 219 kts | 55° |
| 2026-05-03 21:25 | 41.19559 | 19.73986 | 4020 ft | 203 kts | 31° |
| 2026-05-03 21:26 | 41.20787 | 19.74595 | 4009 ft | 176 kts | 8° |
| 2026-05-03 21:26 | 41.21974 | 19.74580 | 3816 ft | 168 kts | 353° |
| 2026-05-03 21:26 | 41.23105 | 19.74405 | 3583 ft | 160 kts | 354° |
| 2026-05-03 21:26 | 41.24199 | 19.74241 | 3350 ft | 157 kts | 354° |
| 2026-05-03 21:27 | 41.25288 | 19.74085 | 3145 ft | 158 kts | 355° |
| 2026-05-03 21:27 | 41.26348 | 19.73937 | 2957 ft | 148 kts | 355° |
| 2026-05-03 21:27 | 41.27358 | 19.73797 | 2774 ft | 144 kts | 354° |
| 2026-05-03 21:27 | 41.28357 | 19.73659 | 2593 ft | 144 kts | 354° |
| 2026-05-03 21:28 | 41.29344 | 19.73523 | 2422 ft | 142 kts | 355° |
| 2026-05-03 21:28 | 41.30334 | 19.73458 | 2218 ft | 143 kts | 3° |
| 2026-05-03 21:28 | 41.31325 | 19.73455 | 2027 ft | 143 kts | 356° |
| 2026-05-03 21:28 | 41.32307 | 19.73288 | 1813 ft | 142 kts | 355° |
| 2026-05-03 21:29 | 41.33286 | 19.73152 | 1575 ft | 142 kts | 355° |
| 2026-05-03 21:29 | 41.34257 | 19.73007 | 1355 ft | 142 kts | 354° |
| 2026-05-03 21:29 | 41.35241 | 19.72882 | 1114 ft | 142 kts | 357° |
| 2026-05-03 21:29 | 41.36223 | 19.72767 | 865 ft | 142 kts | 354° |
| 2026-05-03 21:30 | 41.37203 | 19.72636 | 667 ft | 141 kts | 354° |
| 2026-05-03 21:30 | 41.38184 | 19.72502 | 499 ft | 141 kts | 354° |
| 2026-05-03 21:30 | 41.39159 | 19.72369 | 333 ft | 141 kts | 354° |
| 2026-05-03 21:30 | 41.40133 | 19.72242 | 185 ft | 141 kts | 353° |
| 2026-05-03 21:31 | 41.41052 | 19.72111 | 131 ft | 112 kts | 354° |
| 2026-05-03 21:31 | 41.41594 | 19.72035 | 126 ft | 60 kts | 353° |
| 2026-05-03 21:31 | 41.41854 | 19.71986 | 124 ft | 13 kts | 321° |
| 2026-05-03 21:31 | 41.41870 | 19.71896 | 130 ft | 7 kts | 266° |
| 2026-05-03 21:32 | 41.41868 | 19.71839 | 131 ft | 6 kts | 267° |
| 2026-05-03 21:32 | 41.41864 | 19.71782 | 131 ft | 6 kts | 265° |
| 2026-05-03 21:32 | 41.41859 | 19.71718 | 132 ft | 8 kts | 263° |
| 2026-05-03 21:32 | 41.41856 | 19.71655 | 132 ft | 6 kts | 265° |
| 2026-05-03 21:33 | 41.41867 | 19.71595 | 132 ft | 7 kts | 307° |
| 2026-05-03 21:33 | 41.41897 | 19.71584 | 132 ft | 4 kts | 350° |
| 2026-05-03 21:33 | 41.41932 | 19.71576 | 132 ft | 6 kts | 354° |
| 2026-05-03 21:33 | 41.41973 | 19.71571 | 132 ft | 0 kts | 354° |
| 2026-05-03 21:34 | 41.41980 | 19.71570 | 132 ft | 1 kts | 348° |
| 2026-05-03 21:34 | 41.41991 | 19.71557 | 132 ft | 2 kts | 310° |
| 2026-05-03 21:34 | 41.41992 | 19.71540 | 132 ft | 1 kts | 271° |
| 2026-05-03 21:34 | 41.41991 | 19.71525 | 132 ft | 2 kts | 267° |
| 2026-05-03 21:35 | 41.41990 | 19.71510 | 132 ft | 0 kts | 265° |